METAR Data
IDs: Format: Raw Decoded Include TAF

Data at: 2217 UTC 02 Aug 2021

SCSE 022200Z 27010KT CAVOK 13/10 Q1017